<?xml version="1.0" encoding="UTF-8" standalone="no" ?>
<gpx xmlns="http://www.topografix.com/GPX/1/1" xmlns:xsi="http://www.w3.org/2001/XMLSchema-instance" xsi:schemaLocation="http://www.topografix.com/GPX/1/1 http://www.topografix.com/GPX/1/1/gpx.xsd" version="1.1" creator="VisuGPX - https://www.visugpx.com">
  <metadata>
    <name>COURANCES</name>
    <desc><![CDATA[Courances avec Gilles]]></desc>
  </metadata>
  <trk>
    <name><![CDATA[--Courances-- OR-5973035:Courances]]></name>
    <trkseg>
      <trkpt lat="48.44335" lon="2.47246">
        <ele>63</ele>
        <time>2016-04-19T19:19:15Z</time>
      </trkpt>
      <trkpt lat="48.44182" lon="2.47491">
        <ele>67</ele>
        <time>2016-04-19T19:21:15Z</time>
      </trkpt>
      <trkpt lat="48.44166" lon="2.47517">
        <ele>68</ele>
        <time>2016-04-19T19:23:15Z</time>
      </trkpt>
      <trkpt lat="48.44157" lon="2.47527">
        <ele>68</ele>
        <time>2016-04-19T19:25:15Z</time>
      </trkpt>
      <trkpt lat="48.44153" lon="2.47539">
        <ele>69</ele>
        <time>2016-04-19T19:27:15Z</time>
      </trkpt>
      <trkpt lat="48.4414" lon="2.47583">
        <ele>71</ele>
        <time>2016-04-19T19:29:15Z</time>
      </trkpt>
      <trkpt lat="48.44129" lon="2.47617">
        <ele>71</ele>
        <time>2016-04-19T19:31:15Z</time>
      </trkpt>
      <trkpt lat="48.44119" lon="2.47645">
        <ele>71</ele>
        <time>2016-04-19T19:33:15Z</time>
      </trkpt>
      <trkpt lat="48.44111" lon="2.4767">
        <ele>71</ele>
        <time>2016-04-19T19:35:15Z</time>
      </trkpt>
      <trkpt lat="48.44087" lon="2.47737">
        <ele>72</ele>
        <time>2016-04-19T19:37:15Z</time>
      </trkpt>
      <trkpt lat="48.4408" lon="2.47744">
        <ele>72</ele>
        <time>2016-04-19T19:39:15Z</time>
      </trkpt>
      <trkpt lat="48.44078" lon="2.47761">
        <ele>72</ele>
        <time>2016-04-19T19:41:15Z</time>
      </trkpt>
      <trkpt lat="48.44078" lon="2.47782">
        <ele>72</ele>
        <time>2016-04-19T19:43:15Z</time>
      </trkpt>
      <trkpt lat="48.44094" lon="2.47936">
        <ele>71</ele>
        <time>2016-04-19T19:45:15Z</time>
      </trkpt>
      <trkpt lat="48.44111" lon="2.48091">
        <ele>73</ele>
        <time>2016-04-19T19:47:15Z</time>
      </trkpt>
      <trkpt lat="48.44124" lon="2.48201">
        <ele>73</ele>
        <time>2016-04-19T19:49:15Z</time>
      </trkpt>
      <trkpt lat="48.44127" lon="2.48243">
        <ele>73</ele>
        <time>2016-04-19T19:51:15Z</time>
      </trkpt>
      <trkpt lat="48.44137" lon="2.48311">
        <ele>74</ele>
        <time>2016-04-19T19:53:15Z</time>
      </trkpt>
      <trkpt lat="48.44145" lon="2.48386">
        <ele>77</ele>
        <time>2016-04-19T19:55:15Z</time>
      </trkpt>
      <trkpt lat="48.44147" lon="2.48433">
        <ele>79</ele>
        <time>2016-04-19T19:57:15Z</time>
      </trkpt>
      <trkpt lat="48.44147" lon="2.48477">
        <ele>80</ele>
        <time>2016-04-19T19:59:15Z</time>
      </trkpt>
      <trkpt lat="48.44153" lon="2.48571">
        <ele>81</ele>
        <time>2016-04-19T20:01:15Z</time>
      </trkpt>
      <trkpt lat="48.44153" lon="2.48605">
        <ele>82</ele>
        <time>2016-04-19T20:03:15Z</time>
      </trkpt>
      <trkpt lat="48.44155" lon="2.48642">
        <ele>83</ele>
        <time>2016-04-19T20:05:15Z</time>
      </trkpt>
      <trkpt lat="48.44155" lon="2.48697">
        <ele>85</ele>
        <time>2016-04-19T20:07:15Z</time>
      </trkpt>
      <trkpt lat="48.44154" lon="2.48748">
        <ele>88</ele>
        <time>2016-04-19T20:09:15Z</time>
      </trkpt>
      <trkpt lat="48.44152" lon="2.48796">
        <ele>88</ele>
        <time>2016-04-19T20:11:15Z</time>
      </trkpt>
      <trkpt lat="48.44139" lon="2.49019">
        <ele>90</ele>
        <time>2016-04-19T20:13:15Z</time>
      </trkpt>
      <trkpt lat="48.44134" lon="2.49057">
        <ele>91</ele>
        <time>2016-04-19T20:15:15Z</time>
      </trkpt>
      <trkpt lat="48.44127" lon="2.49094">
        <ele>93</ele>
        <time>2016-04-19T20:17:15Z</time>
      </trkpt>
      <trkpt lat="48.44124" lon="2.49119">
        <ele>95</ele>
        <time>2016-04-19T20:19:15Z</time>
      </trkpt>
      <trkpt lat="48.44115" lon="2.49173">
        <ele>98</ele>
        <time>2016-04-19T20:21:15Z</time>
      </trkpt>
      <trkpt lat="48.44113" lon="2.49216">
        <ele>101</ele>
        <time>2016-04-19T20:23:15Z</time>
      </trkpt>
      <trkpt lat="48.44111" lon="2.49246">
        <ele>102</ele>
        <time>2016-04-19T20:25:15Z</time>
      </trkpt>
      <trkpt lat="48.44109" lon="2.49266">
        <ele>104</ele>
        <time>2016-04-19T20:27:15Z</time>
      </trkpt>
      <trkpt lat="48.44099" lon="2.49316">
        <ele>107</ele>
        <time>2016-04-19T20:29:15Z</time>
      </trkpt>
      <trkpt lat="48.44089" lon="2.49355">
        <ele>109</ele>
        <time>2016-04-19T20:31:15Z</time>
      </trkpt>
      <trkpt lat="48.44072" lon="2.49404">
        <ele>115</ele>
        <time>2016-04-19T20:33:15Z</time>
      </trkpt>
      <trkpt lat="48.44065" lon="2.49425">
        <ele>117</ele>
        <time>2016-04-19T20:35:15Z</time>
      </trkpt>
      <trkpt lat="48.44057" lon="2.49441">
        <ele>119</ele>
        <time>2016-04-19T20:37:15Z</time>
      </trkpt>
      <trkpt lat="48.44023" lon="2.49452">
        <ele>124</ele>
        <time>2016-04-19T20:39:15Z</time>
      </trkpt>
      <trkpt lat="48.43991" lon="2.49467">
        <ele>128</ele>
        <time>2016-04-19T20:41:15Z</time>
      </trkpt>
      <trkpt lat="48.43952" lon="2.49479">
        <ele>129</ele>
        <time>2016-04-19T20:43:15Z</time>
      </trkpt>
      <trkpt lat="48.43923" lon="2.4949">
        <ele>131</ele>
        <time>2016-04-19T20:45:15Z</time>
      </trkpt>
      <trkpt lat="48.439" lon="2.49499">
        <ele>131</ele>
        <time>2016-04-19T20:47:15Z</time>
      </trkpt>
      <trkpt lat="48.43867" lon="2.49513">
        <ele>132</ele>
        <time>2016-04-19T20:49:15Z</time>
      </trkpt>
      <trkpt lat="48.43817" lon="2.49532">
        <ele>133</ele>
        <time>2016-04-19T20:51:15Z</time>
      </trkpt>
      <trkpt lat="48.43785" lon="2.49544">
        <ele>132</ele>
        <time>2016-04-19T20:53:15Z</time>
      </trkpt>
      <trkpt lat="48.43755" lon="2.49556">
        <ele>131</ele>
        <time>2016-04-19T20:55:15Z</time>
      </trkpt>
      <trkpt lat="48.43683" lon="2.49584">
        <ele>127</ele>
        <time>2016-04-19T20:57:15Z</time>
      </trkpt>
      <trkpt lat="48.43646" lon="2.49599">
        <ele>125</ele>
        <time>2016-04-19T20:59:15Z</time>
      </trkpt>
      <trkpt lat="48.4357" lon="2.49627">
        <ele>122</ele>
        <time>2016-04-19T21:01:15Z</time>
      </trkpt>
      <trkpt lat="48.43521" lon="2.49645">
        <ele>117</ele>
        <time>2016-04-19T21:03:15Z</time>
      </trkpt>
      <trkpt lat="48.43469" lon="2.49665">
        <ele>111</ele>
        <time>2016-04-19T21:05:15Z</time>
      </trkpt>
      <trkpt lat="48.43393" lon="2.49695">
        <ele>100</ele>
        <time>2016-04-19T21:07:15Z</time>
      </trkpt>
      <trkpt lat="48.43378" lon="2.49702">
        <ele>98</ele>
        <time>2016-04-19T21:09:15Z</time>
      </trkpt>
      <trkpt lat="48.43362" lon="2.49709">
        <ele>95</ele>
        <time>2016-04-19T21:11:15Z</time>
      </trkpt>
      <trkpt lat="48.43361" lon="2.49728">
        <ele>96</ele>
        <time>2016-04-19T21:13:15Z</time>
      </trkpt>
      <trkpt lat="48.43357" lon="2.49747">
        <ele>96</ele>
        <time>2016-04-19T21:15:15Z</time>
      </trkpt>
      <trkpt lat="48.43353" lon="2.49765">
        <ele>96</ele>
        <time>2016-04-19T21:17:15Z</time>
      </trkpt>
      <trkpt lat="48.43344" lon="2.4978">
        <ele>95</ele>
        <time>2016-04-19T21:19:15Z</time>
      </trkpt>
      <trkpt lat="48.43336" lon="2.49785">
        <ele>93</ele>
        <time>2016-04-19T21:21:15Z</time>
      </trkpt>
      <trkpt lat="48.43321" lon="2.49843">
        <ele>93</ele>
        <time>2016-04-19T21:23:15Z</time>
      </trkpt>
      <trkpt lat="48.43298" lon="2.4994">
        <ele>94</ele>
        <time>2016-04-19T21:25:15Z</time>
      </trkpt>
      <trkpt lat="48.43288" lon="2.49976">
        <ele>93</ele>
        <time>2016-04-19T21:27:15Z</time>
      </trkpt>
      <trkpt lat="48.4328" lon="2.50004">
        <ele>93</ele>
        <time>2016-04-19T21:29:15Z</time>
      </trkpt>
      <trkpt lat="48.43273" lon="2.50019">
        <ele>92</ele>
        <time>2016-04-19T21:31:15Z</time>
      </trkpt>
      <trkpt lat="48.43251" lon="2.50034">
        <ele>88</ele>
        <time>2016-04-19T21:33:15Z</time>
      </trkpt>
      <trkpt lat="48.43086" lon="2.50102">
        <ele>76</ele>
        <time>2016-04-19T21:35:15Z</time>
      </trkpt>
      <trkpt lat="48.42805" lon="2.50229">
        <ele>78</ele>
        <time>2016-04-19T21:37:15Z</time>
      </trkpt>
      <trkpt lat="48.42572" lon="2.50335">
        <ele>84</ele>
        <time>2016-04-19T21:39:15Z</time>
      </trkpt>
      <trkpt lat="48.4256" lon="2.50341">
        <ele>86</ele>
        <time>2016-04-19T21:41:15Z</time>
      </trkpt>
      <trkpt lat="48.42559" lon="2.5036">
        <ele>86</ele>
        <time>2016-04-19T21:43:15Z</time>
      </trkpt>
      <trkpt lat="48.42556" lon="2.50385">
        <ele>87</ele>
        <time>2016-04-19T21:45:15Z</time>
      </trkpt>
      <trkpt lat="48.42552" lon="2.50404">
        <ele>87</ele>
        <time>2016-04-19T21:47:15Z</time>
      </trkpt>
      <trkpt lat="48.42545" lon="2.5043">
        <ele>87</ele>
        <time>2016-04-19T21:49:15Z</time>
      </trkpt>
      <trkpt lat="48.42538" lon="2.50447">
        <ele>87</ele>
        <time>2016-04-19T21:51:15Z</time>
      </trkpt>
      <trkpt lat="48.42525" lon="2.50475">
        <ele>87</ele>
        <time>2016-04-19T21:53:15Z</time>
      </trkpt>
      <trkpt lat="48.42517" lon="2.50493">
        <ele>86</ele>
        <time>2016-04-19T21:55:15Z</time>
      </trkpt>
      <trkpt lat="48.42507" lon="2.50509">
        <ele>86</ele>
        <time>2016-04-19T21:57:15Z</time>
      </trkpt>
      <trkpt lat="48.42486" lon="2.50536">
        <ele>85</ele>
        <time>2016-04-19T21:59:15Z</time>
      </trkpt>
      <trkpt lat="48.42473" lon="2.50548">
        <ele>85</ele>
        <time>2016-04-19T22:01:15Z</time>
      </trkpt>
      <trkpt lat="48.42463" lon="2.50557">
        <ele>85</ele>
        <time>2016-04-19T22:03:15Z</time>
      </trkpt>
      <trkpt lat="48.42453" lon="2.50569">
        <ele>85</ele>
        <time>2016-04-19T22:05:15Z</time>
      </trkpt>
      <trkpt lat="48.4244" lon="2.50575">
        <ele>85</ele>
        <time>2016-04-19T22:07:15Z</time>
      </trkpt>
      <trkpt lat="48.42428" lon="2.50581">
        <ele>85</ele>
        <time>2016-04-19T22:09:15Z</time>
      </trkpt>
      <trkpt lat="48.42414" lon="2.5058">
        <ele>85</ele>
        <time>2016-04-19T22:11:15Z</time>
      </trkpt>
      <trkpt lat="48.42396" lon="2.50577">
        <ele>86</ele>
        <time>2016-04-19T22:13:15Z</time>
      </trkpt>
      <trkpt lat="48.42378" lon="2.50572">
        <ele>86</ele>
        <time>2016-04-19T22:15:15Z</time>
      </trkpt>
      <trkpt lat="48.42364" lon="2.50572">
        <ele>87</ele>
        <time>2016-04-19T22:17:15Z</time>
      </trkpt>
      <trkpt lat="48.42356" lon="2.50569">
        <ele>87</ele>
        <time>2016-04-19T22:19:15Z</time>
      </trkpt>
      <trkpt lat="48.42347" lon="2.50564">
        <ele>87</ele>
        <time>2016-04-19T22:21:15Z</time>
      </trkpt>
      <trkpt lat="48.42339" lon="2.50549">
        <ele>87</ele>
        <time>2016-04-19T22:23:15Z</time>
      </trkpt>
      <trkpt lat="48.42324" lon="2.50525">
        <ele>89</ele>
        <time>2016-04-19T22:25:15Z</time>
      </trkpt>
      <trkpt lat="48.42311" lon="2.50532">
        <ele>90</ele>
        <time>2016-04-19T22:27:15Z</time>
      </trkpt>
      <trkpt lat="48.42303" lon="2.50545">
        <ele>91</ele>
        <time>2016-04-19T22:29:15Z</time>
      </trkpt>
      <trkpt lat="48.42291" lon="2.50558">
        <ele>92</ele>
        <time>2016-04-19T22:31:15Z</time>
      </trkpt>
      <trkpt lat="48.4228" lon="2.50573">
        <ele>93</ele>
        <time>2016-04-19T22:33:15Z</time>
      </trkpt>
      <trkpt lat="48.42264" lon="2.50596">
        <ele>95</ele>
        <time>2016-04-19T22:35:15Z</time>
      </trkpt>
      <trkpt lat="48.42251" lon="2.50614">
        <ele>96</ele>
        <time>2016-04-19T22:37:15Z</time>
      </trkpt>
      <trkpt lat="48.42239" lon="2.50626">
        <ele>97</ele>
        <time>2016-04-19T22:39:15Z</time>
      </trkpt>
      <trkpt lat="48.42225" lon="2.50638">
        <ele>99</ele>
        <time>2016-04-19T22:41:15Z</time>
      </trkpt>
      <trkpt lat="48.42204" lon="2.50627">
        <ele>101</ele>
        <time>2016-04-19T22:43:15Z</time>
      </trkpt>
      <trkpt lat="48.42084" lon="2.50674">
        <ele>121</ele>
        <time>2016-04-19T22:45:15Z</time>
      </trkpt>
      <trkpt lat="48.42041" lon="2.50692">
        <ele>125</ele>
        <time>2016-04-19T22:47:15Z</time>
      </trkpt>
      <trkpt lat="48.42045" lon="2.50674">
        <ele>125</ele>
        <time>2016-04-19T22:49:15Z</time>
      </trkpt>
      <trkpt lat="48.42051" lon="2.50653">
        <ele>125</ele>
        <time>2016-04-19T22:51:15Z</time>
      </trkpt>
      <trkpt lat="48.42058" lon="2.50627">
        <ele>125</ele>
        <time>2016-04-19T22:53:15Z</time>
      </trkpt>
      <trkpt lat="48.42062" lon="2.50612">
        <ele>124</ele>
        <time>2016-04-19T22:55:15Z</time>
      </trkpt>
      <trkpt lat="48.42063" lon="2.50592">
        <ele>124</ele>
        <time>2016-04-19T22:57:15Z</time>
      </trkpt>
      <trkpt lat="48.42064" lon="2.50564">
        <ele>125</ele>
        <time>2016-04-19T22:59:15Z</time>
      </trkpt>
      <trkpt lat="48.42065" lon="2.50546">
        <ele>126</ele>
        <time>2016-04-19T23:01:15Z</time>
      </trkpt>
      <trkpt lat="48.42069" lon="2.50527">
        <ele>126</ele>
        <time>2016-04-19T23:03:15Z</time>
      </trkpt>
      <trkpt lat="48.41998" lon="2.50415">
        <ele>136</ele>
        <time>2016-04-19T23:05:15Z</time>
      </trkpt>
      <trkpt lat="48.41848" lon="2.50205">
        <ele>130</ele>
        <time>2016-04-19T23:07:15Z</time>
      </trkpt>
      <trkpt lat="48.41836" lon="2.50195">
        <ele>129</ele>
        <time>2016-04-19T23:09:15Z</time>
      </trkpt>
      <trkpt lat="48.41827" lon="2.50184">
        <ele>129</ele>
        <time>2016-04-19T23:11:15Z</time>
      </trkpt>
      <trkpt lat="48.41811" lon="2.50172">
        <ele>129</ele>
        <time>2016-04-19T23:13:15Z</time>
      </trkpt>
      <trkpt lat="48.41799" lon="2.50166">
        <ele>129</ele>
        <time>2016-04-19T23:15:15Z</time>
      </trkpt>
      <trkpt lat="48.41789" lon="2.50174">
        <ele>129</ele>
        <time>2016-04-19T23:17:15Z</time>
      </trkpt>
      <trkpt lat="48.41778" lon="2.50181">
        <ele>130</ele>
        <time>2016-04-19T23:19:15Z</time>
      </trkpt>
      <trkpt lat="48.4177" lon="2.50187">
        <ele>130</ele>
        <time>2016-04-19T23:21:15Z</time>
      </trkpt>
      <trkpt lat="48.41759" lon="2.50188">
        <ele>130</ele>
        <time>2016-04-19T23:23:15Z</time>
      </trkpt>
      <trkpt lat="48.41751" lon="2.5019">
        <ele>130</ele>
        <time>2016-04-19T23:25:15Z</time>
      </trkpt>
      <trkpt lat="48.41745" lon="2.50187">
        <ele>130</ele>
        <time>2016-04-19T23:27:15Z</time>
      </trkpt>
      <trkpt lat="48.4175" lon="2.50119">
        <ele>129</ele>
        <time>2016-04-19T23:29:15Z</time>
      </trkpt>
      <trkpt lat="48.41759" lon="2.50071">
        <ele>127</ele>
        <time>2016-04-19T23:31:15Z</time>
      </trkpt>
      <trkpt lat="48.41763" lon="2.50046">
        <ele>127</ele>
        <time>2016-04-19T23:33:15Z</time>
      </trkpt>
      <trkpt lat="48.41768" lon="2.50015">
        <ele>126</ele>
        <time>2016-04-19T23:35:15Z</time>
      </trkpt>
      <trkpt lat="48.41771" lon="2.4997">
        <ele>124</ele>
        <time>2016-04-19T23:37:15Z</time>
      </trkpt>
      <trkpt lat="48.41779" lon="2.49905">
        <ele>121</ele>
        <time>2016-04-19T23:39:15Z</time>
      </trkpt>
      <trkpt lat="48.41787" lon="2.49851">
        <ele>119</ele>
        <time>2016-04-19T23:41:15Z</time>
      </trkpt>
      <trkpt lat="48.41792" lon="2.49808">
        <ele>117</ele>
        <time>2016-04-19T23:43:15Z</time>
      </trkpt>
      <trkpt lat="48.41797" lon="2.49784">
        <ele>116</ele>
        <time>2016-04-19T23:45:15Z</time>
      </trkpt>
      <trkpt lat="48.41806" lon="2.49728">
        <ele>114</ele>
        <time>2016-04-19T23:47:15Z</time>
      </trkpt>
      <trkpt lat="48.41813" lon="2.49691">
        <ele>113</ele>
        <time>2016-04-19T23:49:15Z</time>
      </trkpt>
      <trkpt lat="48.41816" lon="2.49672">
        <ele>112</ele>
        <time>2016-04-19T23:51:15Z</time>
      </trkpt>
      <trkpt lat="48.41817" lon="2.49651">
        <ele>111</ele>
        <time>2016-04-19T23:53:15Z</time>
      </trkpt>
      <trkpt lat="48.41822" lon="2.49631">
        <ele>110</ele>
        <time>2016-04-19T23:55:15Z</time>
      </trkpt>
      <trkpt lat="48.41827" lon="2.49612">
        <ele>109</ele>
        <time>2016-04-19T23:57:15Z</time>
      </trkpt>
      <trkpt lat="48.41833" lon="2.49598">
        <ele>109</ele>
        <time>2016-04-19T23:59:15Z</time>
      </trkpt>
      <trkpt lat="48.41835" lon="2.49587">
        <ele>108</ele>
        <time>2016-04-20T00:01:15Z</time>
      </trkpt>
      <trkpt lat="48.41836" lon="2.49578">
        <ele>108</ele>
        <time>2016-04-20T00:03:15Z</time>
      </trkpt>
      <trkpt lat="48.41841" lon="2.49562">
        <ele>108</ele>
        <time>2016-04-20T00:05:15Z</time>
      </trkpt>
      <trkpt lat="48.41844" lon="2.49553">
        <ele>109</ele>
        <time>2016-04-20T00:07:15Z</time>
      </trkpt>
      <trkpt lat="48.41842" lon="2.49536">
        <ele>108</ele>
        <time>2016-04-20T00:09:15Z</time>
      </trkpt>
      <trkpt lat="48.41842" lon="2.49522">
        <ele>108</ele>
        <time>2016-04-20T00:11:15Z</time>
      </trkpt>
      <trkpt lat="48.41846" lon="2.495">
        <ele>108</ele>
        <time>2016-04-20T00:13:15Z</time>
      </trkpt>
      <trkpt lat="48.41846" lon="2.49488">
        <ele>107</ele>
        <time>2016-04-20T00:15:15Z</time>
      </trkpt>
      <trkpt lat="48.41846" lon="2.49475">
        <ele>107</ele>
        <time>2016-04-20T00:17:15Z</time>
      </trkpt>
      <trkpt lat="48.4185" lon="2.49462">
        <ele>107</ele>
        <time>2016-04-20T00:19:15Z</time>
      </trkpt>
      <trkpt lat="48.41855" lon="2.49449">
        <ele>107</ele>
        <time>2016-04-20T00:21:15Z</time>
      </trkpt>
      <trkpt lat="48.41858" lon="2.49439">
        <ele>107</ele>
        <time>2016-04-20T00:23:15Z</time>
      </trkpt>
      <trkpt lat="48.41857" lon="2.49427">
        <ele>106</ele>
        <time>2016-04-20T00:25:15Z</time>
      </trkpt>
      <trkpt lat="48.41857" lon="2.49416">
        <ele>106</ele>
        <time>2016-04-20T00:27:15Z</time>
      </trkpt>
      <trkpt lat="48.41864" lon="2.49398">
        <ele>106</ele>
        <time>2016-04-20T00:29:15Z</time>
      </trkpt>
      <trkpt lat="48.41871" lon="2.49387">
        <ele>106</ele>
        <time>2016-04-20T00:31:15Z</time>
      </trkpt>
      <trkpt lat="48.41878" lon="2.49375">
        <ele>106</ele>
        <time>2016-04-20T00:33:15Z</time>
      </trkpt>
      <trkpt lat="48.41885" lon="2.49366">
        <ele>106</ele>
        <time>2016-04-20T00:35:15Z</time>
      </trkpt>
      <trkpt lat="48.41899" lon="2.49364">
        <ele>106</ele>
        <time>2016-04-20T00:37:15Z</time>
      </trkpt>
      <trkpt lat="48.41919" lon="2.49363">
        <ele>107</ele>
        <time>2016-04-20T00:39:15Z</time>
      </trkpt>
      <trkpt lat="48.41934" lon="2.4936">
        <ele>109</ele>
        <time>2016-04-20T00:41:15Z</time>
      </trkpt>
      <trkpt lat="48.41945" lon="2.49358">
        <ele>111</ele>
        <time>2016-04-20T00:43:15Z</time>
      </trkpt>
      <trkpt lat="48.41955" lon="2.49357">
        <ele>112</ele>
        <time>2016-04-20T00:45:15Z</time>
      </trkpt>
      <trkpt lat="48.41964" lon="2.49353">
        <ele>114</ele>
        <time>2016-04-20T00:47:15Z</time>
      </trkpt>
      <trkpt lat="48.41972" lon="2.4935">
        <ele>115</ele>
        <time>2016-04-20T00:49:15Z</time>
      </trkpt>
      <trkpt lat="48.41981" lon="2.49342">
        <ele>117</ele>
        <time>2016-04-20T00:51:15Z</time>
      </trkpt>
      <trkpt lat="48.41985" lon="2.4933">
        <ele>117</ele>
        <time>2016-04-20T00:53:15Z</time>
      </trkpt>
      <trkpt lat="48.41993" lon="2.49326">
        <ele>119</ele>
        <time>2016-04-20T00:55:15Z</time>
      </trkpt>
      <trkpt lat="48.41991" lon="2.49316">
        <ele>118</ele>
        <time>2016-04-20T00:57:15Z</time>
      </trkpt>
      <trkpt lat="48.41986" lon="2.49305">
        <ele>117</ele>
        <time>2016-04-20T00:59:15Z</time>
      </trkpt>
      <trkpt lat="48.41986" lon="2.49293">
        <ele>117</ele>
        <time>2016-04-20T01:01:15Z</time>
      </trkpt>
      <trkpt lat="48.41986" lon="2.49279">
        <ele>116</ele>
        <time>2016-04-20T01:03:15Z</time>
      </trkpt>
      <trkpt lat="48.41988" lon="2.49262">
        <ele>116</ele>
        <time>2016-04-20T01:05:15Z</time>
      </trkpt>
      <trkpt lat="48.41995" lon="2.49256">
        <ele>117</ele>
        <time>2016-04-20T01:07:15Z</time>
      </trkpt>
      <trkpt lat="48.42002" lon="2.49248">
        <ele>118</ele>
        <time>2016-04-20T01:09:15Z</time>
      </trkpt>
      <trkpt lat="48.42006" lon="2.49238">
        <ele>118</ele>
        <time>2016-04-20T01:11:15Z</time>
      </trkpt>
      <trkpt lat="48.4201" lon="2.49225">
        <ele>118</ele>
        <time>2016-04-20T01:13:15Z</time>
      </trkpt>
      <trkpt lat="48.42015" lon="2.49214">
        <ele>117</ele>
        <time>2016-04-20T01:15:15Z</time>
      </trkpt>
      <trkpt lat="48.42018" lon="2.492">
        <ele>117</ele>
        <time>2016-04-20T01:17:15Z</time>
      </trkpt>
      <trkpt lat="48.42021" lon="2.49191">
        <ele>117</ele>
        <time>2016-04-20T01:19:15Z</time>
      </trkpt>
      <trkpt lat="48.42036" lon="2.49191">
        <ele>118</ele>
        <time>2016-04-20T01:21:15Z</time>
      </trkpt>
      <trkpt lat="48.42051" lon="2.49218">
        <ele>118</ele>
        <time>2016-04-20T01:23:15Z</time>
      </trkpt>
      <trkpt lat="48.42054" lon="2.49235">
        <ele>118</ele>
        <time>2016-04-20T01:25:15Z</time>
      </trkpt>
      <trkpt lat="48.42059" lon="2.49257">
        <ele>118</ele>
        <time>2016-04-20T01:27:15Z</time>
      </trkpt>
      <trkpt lat="48.42059" lon="2.49274">
        <ele>118</ele>
        <time>2016-04-20T01:29:15Z</time>
      </trkpt>
      <trkpt lat="48.42062" lon="2.49289">
        <ele>118</ele>
        <time>2016-04-20T01:31:15Z</time>
      </trkpt>
      <trkpt lat="48.42063" lon="2.49307">
        <ele>118</ele>
        <time>2016-04-20T01:33:15Z</time>
      </trkpt>
      <trkpt lat="48.42065" lon="2.4932">
        <ele>118</ele>
        <time>2016-04-20T01:35:15Z</time>
      </trkpt>
      <trkpt lat="48.42069" lon="2.49327">
        <ele>118</ele>
        <time>2016-04-20T01:37:15Z</time>
      </trkpt>
      <trkpt lat="48.42078" lon="2.4933">
        <ele>117</ele>
        <time>2016-04-20T01:39:15Z</time>
      </trkpt>
      <trkpt lat="48.42084" lon="2.49331">
        <ele>117</ele>
        <time>2016-04-20T01:41:15Z</time>
      </trkpt>
      <trkpt lat="48.42089" lon="2.49331">
        <ele>116</ele>
        <time>2016-04-20T01:43:15Z</time>
      </trkpt>
      <trkpt lat="48.42091" lon="2.49322">
        <ele>115</ele>
        <time>2016-04-20T01:45:15Z</time>
      </trkpt>
      <trkpt lat="48.42089" lon="2.49309">
        <ele>116</ele>
        <time>2016-04-20T01:47:15Z</time>
      </trkpt>
      <trkpt lat="48.42088" lon="2.49301">
        <ele>116</ele>
        <time>2016-04-20T01:49:15Z</time>
      </trkpt>
      <trkpt lat="48.42094" lon="2.49296">
        <ele>115</ele>
        <time>2016-04-20T01:51:15Z</time>
      </trkpt>
      <trkpt lat="48.42107" lon="2.49296">
        <ele>111</ele>
        <time>2016-04-20T01:53:15Z</time>
      </trkpt>
      <trkpt lat="48.42129" lon="2.49296">
        <ele>106</ele>
        <time>2016-04-20T01:55:15Z</time>
      </trkpt>
      <trkpt lat="48.42142" lon="2.49294">
        <ele>102</ele>
        <time>2016-04-20T01:57:15Z</time>
      </trkpt>
      <trkpt lat="48.42153" lon="2.49295">
        <ele>100</ele>
        <time>2016-04-20T01:59:15Z</time>
      </trkpt>
      <trkpt lat="48.42165" lon="2.49293">
        <ele>96</ele>
        <time>2016-04-20T02:01:15Z</time>
      </trkpt>
      <trkpt lat="48.42174" lon="2.49292">
        <ele>95</ele>
        <time>2016-04-20T02:03:15Z</time>
      </trkpt>
      <trkpt lat="48.42182" lon="2.4929">
        <ele>95</ele>
        <time>2016-04-20T02:05:15Z</time>
      </trkpt>
      <trkpt lat="48.42189" lon="2.49287">
        <ele>94</ele>
        <time>2016-04-20T02:07:15Z</time>
      </trkpt>
      <trkpt lat="48.42197" lon="2.4928">
        <ele>93</ele>
        <time>2016-04-20T02:09:15Z</time>
      </trkpt>
      <trkpt lat="48.42204" lon="2.49276">
        <ele>93</ele>
        <time>2016-04-20T02:11:15Z</time>
      </trkpt>
      <trkpt lat="48.42211" lon="2.49259">
        <ele>91</ele>
        <time>2016-04-20T02:13:15Z</time>
      </trkpt>
      <trkpt lat="48.42222" lon="2.49236">
        <ele>90</ele>
        <time>2016-04-20T02:15:15Z</time>
      </trkpt>
      <trkpt lat="48.42231" lon="2.49218">
        <ele>89</ele>
        <time>2016-04-20T02:17:15Z</time>
      </trkpt>
      <trkpt lat="48.42237" lon="2.49203">
        <ele>89</ele>
        <time>2016-04-20T02:19:15Z</time>
      </trkpt>
      <trkpt lat="48.42248" lon="2.49188">
        <ele>87</ele>
        <time>2016-04-20T02:21:15Z</time>
      </trkpt>
      <trkpt lat="48.42257" lon="2.4918">
        <ele>87</ele>
        <time>2016-04-20T02:23:15Z</time>
      </trkpt>
      <trkpt lat="48.42264" lon="2.49173">
        <ele>86</ele>
        <time>2016-04-20T02:25:15Z</time>
      </trkpt>
      <trkpt lat="48.42273" lon="2.49168">
        <ele>86</ele>
        <time>2016-04-20T02:27:15Z</time>
      </trkpt>
      <trkpt lat="48.42282" lon="2.49166">
        <ele>85</ele>
        <time>2016-04-20T02:29:15Z</time>
      </trkpt>
      <trkpt lat="48.42293" lon="2.49164">
        <ele>85</ele>
        <time>2016-04-20T02:31:15Z</time>
      </trkpt>
      <trkpt lat="48.42303" lon="2.49163">
        <ele>85</ele>
        <time>2016-04-20T02:33:15Z</time>
      </trkpt>
      <trkpt lat="48.42314" lon="2.49161">
        <ele>84</ele>
        <time>2016-04-20T02:35:15Z</time>
      </trkpt>
      <trkpt lat="48.42324" lon="2.49161">
        <ele>84</ele>
        <time>2016-04-20T02:37:15Z</time>
      </trkpt>
      <trkpt lat="48.42357" lon="2.49148">
        <ele>84</ele>
        <time>2016-04-20T02:39:15Z</time>
      </trkpt>
      <trkpt lat="48.42366" lon="2.49143">
        <ele>84</ele>
        <time>2016-04-20T02:41:15Z</time>
      </trkpt>
      <trkpt lat="48.42374" lon="2.49131">
        <ele>85</ele>
        <time>2016-04-20T02:43:15Z</time>
      </trkpt>
      <trkpt lat="48.42382" lon="2.4912">
        <ele>85</ele>
        <time>2016-04-20T02:45:15Z</time>
      </trkpt>
      <trkpt lat="48.42405" lon="2.4908">
        <ele>85</ele>
        <time>2016-04-20T02:47:15Z</time>
      </trkpt>
      <trkpt lat="48.42419" lon="2.49067">
        <ele>84</ele>
        <time>2016-04-20T02:49:15Z</time>
      </trkpt>
      <trkpt lat="48.42431" lon="2.49053">
        <ele>85</ele>
        <time>2016-04-20T02:51:15Z</time>
      </trkpt>
      <trkpt lat="48.42445" lon="2.49041">
        <ele>85</ele>
        <time>2016-04-20T02:53:15Z</time>
      </trkpt>
      <trkpt lat="48.42459" lon="2.49034">
        <ele>85</ele>
        <time>2016-04-20T02:55:15Z</time>
      </trkpt>
      <trkpt lat="48.42482" lon="2.49021">
        <ele>85</ele>
        <time>2016-04-20T02:57:15Z</time>
      </trkpt>
      <trkpt lat="48.42495" lon="2.49014">
        <ele>84</ele>
        <time>2016-04-20T02:59:15Z</time>
      </trkpt>
      <trkpt lat="48.4252" lon="2.48999">
        <ele>83</ele>
        <time>2016-04-20T03:01:15Z</time>
      </trkpt>
      <trkpt lat="48.42536" lon="2.48988">
        <ele>81</ele>
        <time>2016-04-20T03:03:15Z</time>
      </trkpt>
      <trkpt lat="48.42548" lon="2.48978">
        <ele>81</ele>
        <time>2016-04-20T03:05:15Z</time>
      </trkpt>
      <trkpt lat="48.42562" lon="2.48965">
        <ele>80</ele>
        <time>2016-04-20T03:07:15Z</time>
      </trkpt>
      <trkpt lat="48.4257" lon="2.48954">
        <ele>79</ele>
        <time>2016-04-20T03:09:15Z</time>
      </trkpt>
      <trkpt lat="48.42575" lon="2.48947">
        <ele>79</ele>
        <time>2016-04-20T03:11:15Z</time>
      </trkpt>
      <trkpt lat="48.4258" lon="2.48932">
        <ele>78</ele>
        <time>2016-04-20T03:13:15Z</time>
      </trkpt>
      <trkpt lat="48.42585" lon="2.48918">
        <ele>78</ele>
        <time>2016-04-20T03:15:15Z</time>
      </trkpt>
      <trkpt lat="48.42585" lon="2.48878">
        <ele>79</ele>
        <time>2016-04-20T03:17:15Z</time>
      </trkpt>
      <trkpt lat="48.42586" lon="2.48847">
        <ele>79</ele>
        <time>2016-04-20T03:19:15Z</time>
      </trkpt>
      <trkpt lat="48.42586" lon="2.48807">
        <ele>80</ele>
        <time>2016-04-20T03:21:15Z</time>
      </trkpt>
      <trkpt lat="48.42588" lon="2.48773">
        <ele>80</ele>
        <time>2016-04-20T03:23:15Z</time>
      </trkpt>
      <trkpt lat="48.42588" lon="2.4874">
        <ele>80</ele>
        <time>2016-04-20T03:25:15Z</time>
      </trkpt>
      <trkpt lat="48.42588" lon="2.48722">
        <ele>80</ele>
        <time>2016-04-20T03:27:15Z</time>
      </trkpt>
      <trkpt lat="48.42588" lon="2.48691">
        <ele>80</ele>
        <time>2016-04-20T03:29:15Z</time>
      </trkpt>
      <trkpt lat="48.4259" lon="2.48675">
        <ele>79</ele>
        <time>2016-04-20T03:31:15Z</time>
      </trkpt>
      <trkpt lat="48.42592" lon="2.48649">
        <ele>79</ele>
        <time>2016-04-20T03:33:15Z</time>
      </trkpt>
      <trkpt lat="48.42595" lon="2.48631">
        <ele>78</ele>
        <time>2016-04-20T03:35:15Z</time>
      </trkpt>
      <trkpt lat="48.42583" lon="2.48587">
        <ele>77</ele>
        <time>2016-04-20T03:37:15Z</time>
      </trkpt>
      <trkpt lat="48.42593" lon="2.4858">
        <ele>77</ele>
        <time>2016-04-20T03:39:15Z</time>
      </trkpt>
      <trkpt lat="48.42603" lon="2.48578">
        <ele>76</ele>
        <time>2016-04-20T03:41:15Z</time>
      </trkpt>
      <trkpt lat="48.42609" lon="2.48557">
        <ele>77</ele>
        <time>2016-04-20T03:43:15Z</time>
      </trkpt>
      <trkpt lat="48.42628" lon="2.48501">
        <ele>78</ele>
        <time>2016-04-20T03:45:15Z</time>
      </trkpt>
      <trkpt lat="48.42629" lon="2.48467">
        <ele>77</ele>
        <time>2016-04-20T03:47:15Z</time>
      </trkpt>
      <trkpt lat="48.42632" lon="2.48422">
        <ele>75</ele>
        <time>2016-04-20T03:49:15Z</time>
      </trkpt>
      <trkpt lat="48.42635" lon="2.48393">
        <ele>74</ele>
        <time>2016-04-20T03:51:15Z</time>
      </trkpt>
      <trkpt lat="48.42641" lon="2.48345">
        <ele>73</ele>
        <time>2016-04-20T03:53:15Z</time>
      </trkpt>
      <trkpt lat="48.42649" lon="2.48295">
        <ele>73</ele>
        <time>2016-04-20T03:55:15Z</time>
      </trkpt>
      <trkpt lat="48.42655" lon="2.48258">
        <ele>73</ele>
        <time>2016-04-20T03:57:15Z</time>
      </trkpt>
      <trkpt lat="48.42665" lon="2.48211">
        <ele>72</ele>
        <time>2016-04-20T03:59:15Z</time>
      </trkpt>
      <trkpt lat="48.42673" lon="2.48173">
        <ele>71</ele>
        <time>2016-04-20T04:01:15Z</time>
      </trkpt>
      <trkpt lat="48.4268" lon="2.48136">
        <ele>71</ele>
        <time>2016-04-20T04:03:15Z</time>
      </trkpt>
      <trkpt lat="48.42688" lon="2.48108">
        <ele>71</ele>
        <time>2016-04-20T04:05:15Z</time>
      </trkpt>
      <trkpt lat="48.42696" lon="2.48079">
        <ele>71</ele>
        <time>2016-04-20T04:07:15Z</time>
      </trkpt>
      <trkpt lat="48.42707" lon="2.48052">
        <ele>71</ele>
        <time>2016-04-20T04:09:15Z</time>
      </trkpt>
      <trkpt lat="48.42717" lon="2.48032">
        <ele>70</ele>
        <time>2016-04-20T04:11:15Z</time>
      </trkpt>
      <trkpt lat="48.42724" lon="2.48021">
        <ele>70</ele>
        <time>2016-04-20T04:13:15Z</time>
      </trkpt>
      <trkpt lat="48.42734" lon="2.48002">
        <ele>70</ele>
        <time>2016-04-20T04:15:15Z</time>
      </trkpt>
      <trkpt lat="48.42742" lon="2.47979">
        <ele>70</ele>
        <time>2016-04-20T04:17:15Z</time>
      </trkpt>
      <trkpt lat="48.4275" lon="2.47953">
        <ele>71</ele>
        <time>2016-04-20T04:19:15Z</time>
      </trkpt>
      <trkpt lat="48.42762" lon="2.47909">
        <ele>71</ele>
        <time>2016-04-20T04:21:15Z</time>
      </trkpt>
      <trkpt lat="48.42773" lon="2.47876">
        <ele>70</ele>
        <time>2016-04-20T04:23:15Z</time>
      </trkpt>
      <trkpt lat="48.42784" lon="2.47837">
        <ele>70</ele>
        <time>2016-04-20T04:25:15Z</time>
      </trkpt>
      <trkpt lat="48.42791" lon="2.4781">
        <ele>70</ele>
        <time>2016-04-20T04:27:15Z</time>
      </trkpt>
      <trkpt lat="48.42797" lon="2.47776">
        <ele>69</ele>
        <time>2016-04-20T04:29:15Z</time>
      </trkpt>
      <trkpt lat="48.42803" lon="2.47741">
        <ele>69</ele>
        <time>2016-04-20T04:31:15Z</time>
      </trkpt>
      <trkpt lat="48.42808" lon="2.47713">
        <ele>69</ele>
        <time>2016-04-20T04:33:15Z</time>
      </trkpt>
      <trkpt lat="48.42814" lon="2.47687">
        <ele>69</ele>
        <time>2016-04-20T04:35:15Z</time>
      </trkpt>
      <trkpt lat="48.42825" lon="2.47636">
        <ele>69</ele>
        <time>2016-04-20T04:37:15Z</time>
      </trkpt>
      <trkpt lat="48.42833" lon="2.47608">
        <ele>69</ele>
        <time>2016-04-20T04:39:15Z</time>
      </trkpt>
      <trkpt lat="48.42849" lon="2.47556">
        <ele>68</ele>
        <time>2016-04-20T04:41:15Z</time>
      </trkpt>
      <trkpt lat="48.42861" lon="2.47517">
        <ele>68</ele>
        <time>2016-04-20T04:43:15Z</time>
      </trkpt>
      <trkpt lat="48.42873" lon="2.47476">
        <ele>68</ele>
        <time>2016-04-20T04:45:15Z</time>
      </trkpt>
      <trkpt lat="48.42891" lon="2.47417">
        <ele>67</ele>
        <time>2016-04-20T04:47:15Z</time>
      </trkpt>
      <trkpt lat="48.4291" lon="2.47361">
        <ele>68</ele>
        <time>2016-04-20T04:49:15Z</time>
      </trkpt>
      <trkpt lat="48.42924" lon="2.47318">
        <ele>69</ele>
        <time>2016-04-20T04:51:15Z</time>
      </trkpt>
      <trkpt lat="48.42935" lon="2.47288">
        <ele>69</ele>
        <time>2016-04-20T04:53:15Z</time>
      </trkpt>
      <trkpt lat="48.4295" lon="2.4725">
        <ele>69</ele>
        <time>2016-04-20T04:55:15Z</time>
      </trkpt>
      <trkpt lat="48.42958" lon="2.47232">
        <ele>68</ele>
        <time>2016-04-20T04:57:15Z</time>
      </trkpt>
      <trkpt lat="48.42966" lon="2.47209">
        <ele>68</ele>
        <time>2016-04-20T04:59:15Z</time>
      </trkpt>
      <trkpt lat="48.42975" lon="2.47185">
        <ele>68</ele>
        <time>2016-04-20T05:01:15Z</time>
      </trkpt>
      <trkpt lat="48.42979" lon="2.47169">
        <ele>67</ele>
        <time>2016-04-20T05:03:15Z</time>
      </trkpt>
      <trkpt lat="48.42984" lon="2.47151">
        <ele>67</ele>
        <time>2016-04-20T05:05:15Z</time>
      </trkpt>
      <trkpt lat="48.42981" lon="2.47133">
        <ele>67</ele>
        <time>2016-04-20T05:07:15Z</time>
      </trkpt>
      <trkpt lat="48.42984" lon="2.47113">
        <ele>67</ele>
        <time>2016-04-20T05:09:15Z</time>
      </trkpt>
      <trkpt lat="48.42987" lon="2.47097">
        <ele>67</ele>
        <time>2016-04-20T05:11:15Z</time>
      </trkpt>
      <trkpt lat="48.43004" lon="2.47026">
        <ele>67</ele>
        <time>2016-04-20T05:13:15Z</time>
      </trkpt>
      <trkpt lat="48.43024" lon="2.46938">
        <ele>67</ele>
        <time>2016-04-20T05:15:15Z</time>
      </trkpt>
      <trkpt lat="48.43067" lon="2.4676">
        <ele>64</ele>
        <time>2016-04-20T05:17:15Z</time>
      </trkpt>
      <trkpt lat="48.4307" lon="2.46739">
        <ele>64</ele>
        <time>2016-04-20T05:19:15Z</time>
      </trkpt>
      <trkpt lat="48.43068" lon="2.46728">
        <ele>64</ele>
        <time>2016-04-20T05:21:15Z</time>
      </trkpt>
      <trkpt lat="48.43074" lon="2.46727">
        <ele>64</ele>
        <time>2016-04-20T05:23:15Z</time>
      </trkpt>
      <trkpt lat="48.43085" lon="2.46731">
        <ele>64</ele>
        <time>2016-04-20T05:25:15Z</time>
      </trkpt>
      <trkpt lat="48.4317" lon="2.46782">
        <ele>67</ele>
        <time>2016-04-20T05:27:15Z</time>
      </trkpt>
      <trkpt lat="48.43269" lon="2.46842">
        <ele>73</ele>
        <time>2016-04-20T05:29:15Z</time>
      </trkpt>
      <trkpt lat="48.43277" lon="2.46849">
        <ele>73</ele>
        <time>2016-04-20T05:31:15Z</time>
      </trkpt>
      <trkpt lat="48.43288" lon="2.46858">
        <ele>74</ele>
        <time>2016-04-20T05:33:15Z</time>
      </trkpt>
      <trkpt lat="48.43316" lon="2.46878">
        <ele>76</ele>
        <time>2016-04-20T05:35:15Z</time>
      </trkpt>
      <trkpt lat="48.43416" lon="2.46955">
        <ele>75</ele>
        <time>2016-04-20T05:37:15Z</time>
      </trkpt>
      <trkpt lat="48.43492" lon="2.47017">
        <ele>72</ele>
        <time>2016-04-20T05:39:15Z</time>
      </trkpt>
      <trkpt lat="48.43726" lon="2.47205">
        <ele>67</ele>
        <time>2016-04-20T05:41:15Z</time>
      </trkpt>
      <trkpt lat="48.4373" lon="2.47196">
        <ele>67</ele>
        <time>2016-04-20T05:43:15Z</time>
      </trkpt>
      <trkpt lat="48.43738" lon="2.47162">
        <ele>68</ele>
        <time>2016-04-20T05:45:15Z</time>
      </trkpt>
      <trkpt lat="48.43742" lon="2.47143">
        <ele>68</ele>
        <time>2016-04-20T05:47:15Z</time>
      </trkpt>
      <trkpt lat="48.43747" lon="2.47117">
        <ele>69</ele>
        <time>2016-04-20T05:49:15Z</time>
      </trkpt>
      <trkpt lat="48.43752" lon="2.47098">
        <ele>69</ele>
        <time>2016-04-20T05:51:15Z</time>
      </trkpt>
      <trkpt lat="48.43755" lon="2.47081">
        <ele>69</ele>
        <time>2016-04-20T05:53:15Z</time>
      </trkpt>
      <trkpt lat="48.43761" lon="2.4707">
        <ele>69</ele>
        <time>2016-04-20T05:55:15Z</time>
      </trkpt>
      <trkpt lat="48.4377" lon="2.47065">
        <ele>70</ele>
        <time>2016-04-20T05:57:15Z</time>
      </trkpt>
      <trkpt lat="48.43781" lon="2.47071">
        <ele>69</ele>
        <time>2016-04-20T05:59:15Z</time>
      </trkpt>
      <trkpt lat="48.43791" lon="2.47085">
        <ele>68</ele>
        <time>2016-04-20T06:01:15Z</time>
      </trkpt>
      <trkpt lat="48.43808" lon="2.47117">
        <ele>68</ele>
        <time>2016-04-20T06:03:15Z</time>
      </trkpt>
      <trkpt lat="48.43826" lon="2.47151">
        <ele>67</ele>
        <time>2016-04-20T06:05:15Z</time>
      </trkpt>
      <trkpt lat="48.43847" lon="2.47193">
        <ele>67</ele>
        <time>2016-04-20T06:07:15Z</time>
      </trkpt>
      <trkpt lat="48.4388" lon="2.47273">
        <ele>67</ele>
        <time>2016-04-20T06:09:15Z</time>
      </trkpt>
      <trkpt lat="48.43899" lon="2.47329">
        <ele>66</ele>
        <time>2016-04-20T06:11:15Z</time>
      </trkpt>
      <trkpt lat="48.43909" lon="2.47346">
        <ele>67</ele>
        <time>2016-04-20T06:13:15Z</time>
      </trkpt>
      <trkpt lat="48.43918" lon="2.47363">
        <ele>67</ele>
        <time>2016-04-20T06:15:15Z</time>
      </trkpt>
      <trkpt lat="48.43929" lon="2.47379">
        <ele>67</ele>
        <time>2016-04-20T06:17:15Z</time>
      </trkpt>
      <trkpt lat="48.4394" lon="2.47385">
        <ele>67</ele>
        <time>2016-04-20T06:19:15Z</time>
      </trkpt>
      <trkpt lat="48.43961" lon="2.47388">
        <ele>68</ele>
        <time>2016-04-20T06:21:15Z</time>
      </trkpt>
      <trkpt lat="48.43991" lon="2.47393">
        <ele>69</ele>
        <time>2016-04-20T06:23:15Z</time>
      </trkpt>
      <trkpt lat="48.44011" lon="2.47406">
        <ele>68</ele>
        <time>2016-04-20T06:25:15Z</time>
      </trkpt>
      <trkpt lat="48.4403" lon="2.4742">
        <ele>68</ele>
        <time>2016-04-20T06:27:15Z</time>
      </trkpt>
      <trkpt lat="48.4404" lon="2.47428">
        <ele>68</ele>
        <time>2016-04-20T06:29:15Z</time>
      </trkpt>
      <trkpt lat="48.44047" lon="2.47415">
        <ele>67</ele>
        <time>2016-04-20T06:31:15Z</time>
      </trkpt>
      <trkpt lat="48.4406" lon="2.47393">
        <ele>67</ele>
        <time>2016-04-20T06:33:15Z</time>
      </trkpt>
      <trkpt lat="48.44071" lon="2.47406">
        <ele>66</ele>
        <time>2016-04-20T06:35:15Z</time>
      </trkpt>
      <trkpt lat="48.44087" lon="2.47421">
        <ele>66</ele>
        <time>2016-04-20T06:37:15Z</time>
      </trkpt>
      <trkpt lat="48.4409" lon="2.47413">
        <ele>66</ele>
        <time>2016-04-20T06:39:15Z</time>
      </trkpt>
      <trkpt lat="48.441" lon="2.47421">
        <ele>66</ele>
        <time>2016-04-20T06:41:15Z</time>
      </trkpt>
      <trkpt lat="48.44146" lon="2.47457">
        <ele>66</ele>
        <time>2016-04-20T06:43:15Z</time>
      </trkpt>
      <trkpt lat="48.44181" lon="2.47487">
        <ele>67</ele>
        <time>2016-04-20T06:45:15Z</time>
      </trkpt>
      <trkpt lat="48.44201" lon="2.47454">
        <ele>65</ele>
        <time>2016-04-20T06:47:15Z</time>
      </trkpt>
      <trkpt lat="48.4425" lon="2.47375">
        <ele>65</ele>
        <time>2016-04-20T06:49:15Z</time>
      </trkpt>
      <trkpt lat="48.44277" lon="2.47329">
        <ele>66</ele>
        <time>2016-04-20T06:51:15Z</time>
      </trkpt>
      <trkpt lat="48.4433" lon="2.47238">
        <ele>63</ele>
        <time>2016-04-20T06:53:15Z</time>
      </trkpt>
    </trkseg>
  </trk>
</gpx>